Aérodrome :
LOGIN :

S'inscrire | Disclaimer

   EN    FR    IT 

 










Légende :    VFR   VFR Marginal   IFR   IFR Intensif   IFR Très Intensif
Visi : 
Plafond : 
>= 8 km
>= 3000ft
5 à 8 km
1000 à 3000 ft
1500m à 5 km
500 à 1000 ft
800 à 1500m
200 à 500 ft
< 800m
< 200 ft
Symboles :   Orages  Brouillard  Fortes neiges  Fortes précipitations  Vent > 20 kt
SIGMETs :   Divers  Orages  Givrage  Turbulence  Onde Orograph.  Cendres Volcan.







- Altitude de l'aérodrome : 183 ft
- Code IATA : HAJ


EDDV - Hanover/Langenhagen Int.

DERNIER METAR :
  • 211120Z 09009KT 060V140 CAVOK 28/10 Q1011 NOSIG

METARs EXPIRÉS :
  • 211050Z 13007KT 070V190 CAVOK 27/10 Q1011 NOSIG
  • 211020Z 11007KT 060V180 CAVOK 26/10 Q1011 NOSIG
  • 210950Z 10006KT 060V160 CAVOK 26/11 Q1011 NOSIG
  • 210920Z 10005KT CAVOK 23/10 Q1012 NOSIG
  • 210850Z 08007KT CAVOK 22/10 Q1012 NOSIG

TAF TAF EDDV
Valide du 21 à 12h jusqu'au 22 à 12h UTC


211100Z 2112/2212 10008KT CAVOK
BECMG 2117/2119 16004KT
PROB30
TEMPO 2118/2206 TSRA BKN025CB
BECMG 2205/2207 26006KT
Pas de NOTAMs connus pour ce terrain.



MET'MAP, la Météo Aéronautique d'un coup d'oeil ! - Copyright ORBIFLY Décembre 2007 - Disclaimer

ORBIFLY MET'MAP TEAM :

Programmation & Développement : Alexandra Zaïnal
Conception & Développement : Baudouin d'Aumeries
Co-Programmation & Développement : Marc-Olivier Méhu
Soutien technique & logistique : Manuel Goepfert

Contact : metmap@orbifly.com




SOURCES & CREDITS :

   NOAA